This is the latest recevied weather packets stored in our database for station/object DF9PV-5. If no packets are shown the sender has not sent any weather packets the latest 10 day(s).
| Time | Temp. | Humidity | Pressure | Rain* | Wind** | Luminosity | Snow |
|---|---|---|---|---|---|---|---|
| 1777720525 | 27.22° C | 35% | 1018.5 hPa | 0 mm | - | - | - |
| 1777719933 | 26.67° C | 36% | 1018.6 hPa | 0 mm | - | - | - |
| 1777717533 | 23.33° C | 40% | 1019.1 hPa | 0 mm | - | - | - |
| 1777716621 | 24.44° C | 40% | 1019.3 hPa | 0 mm | - | - | - |
| 1777715421 | 23.89° C | 40% | 1019.6 hPa | 0 mm | - | - | - |
| 1777714528 | 22.78° C | 40% | 1019.8 hPa | 0 mm | - | - | - |
| 1777714269 | 22.22° C | 40% | - | 0 mm | - | - | - |
| 1777713021 | 21.67° C | 42% | - | 0 mm | - | - | - |
| 1777712733 | 21.67° C | 41% | - | 0 mm | - | - | - |
| 1777710029 | 18.89° C | 46% | - | 0 mm | - | - | - |
| 1777708848 | 18.33° C | 49% | - | 0 mm | - | - | - |
| 1777706448 | 15° C | 57% | 1021.3 hPa | 0 mm | - | - | - |
| 1777705245 | 14.44° C | 60% | 1021.5 hPa | 0 mm | - | - | - |
| 1777704621 | 13.89° C | 62% | 1021.5 hPa | 0 mm | - | - | - |
| 1777704333 | 13.33° C | 63% | 1021.5 hPa | 0 mm | - | - | - |
| 1777704052 | 13.33° C | 64% | 1021.5 hPa | 0 mm | - | - | - |
| 1777699533 | 7.22° C | 79% | 1021.5 hPa | 0 mm | - | - | - |
| 1777699229 | 6.67° C | 82% | 1021.4 hPa | 0 mm | - | - | - |
| 1777693860 | - | - | 1021.5 hPa | 0 mm | - | - | - |
| 1777691465 | 6.67° C | 84% | 1021.5 hPa | 0 mm | - | - | - |
| 1777690849 | 6.67° C | 83% | 1021.5 hPa | 0 mm | - | - | - |
| 1777690276 | - | - | 1021.4 hPa | 0 mm | - | - | - |
| 1777689953 | 6.67° C | 83% | 1021.5 hPa | 0 mm | - | - | - |
| 1777689633 | - | - | 1021.5 hPa | 0 mm | - | - | - |
| 1777688161 | - | - | 1021.4 hPa | 0 mm | - | - | - |
* Rain latest hour (hover to see other rain measurements)
** Current wind speed in m/s (hover to see current wind gust speed)